Airfield :
LOGIN :

Register | Disclaimer

   EN    FR    IT 

 










Legend :    VFR   Marginal VFR   IFR   Intensive IFR   Very Intensive IFR
Visi :
Ceiling :
>= 8 km
>= 3000ft
5 to 8 km
1000 to 3000 ft
1500m to 5 km
500 to 1000 ft
800 to 1500m
200 to 500 ft
< 800m
< 200 ft
Symbols :   Thunderstorms  Fog  Heavy snow  Heavy precipitations  Wind > 20 kt
SIGMETs :     Misc.  Thunderstorms  Icing  Turbulence  Mountain Waves  Volcanic Ashes







- Airport Elevation : 157 ft
- IATA code : LIL
- Download approach charts


LFQQ - Lille Lesquin

EXPIRED METARs :
  • 241430Z AUTO 25012KT 9999 BKN027 OVC035 21/14 Q1016 NOSIG
  • 241400Z AUTO 25012KT 9999 BKN028 OVC033 20/14 Q1016 TEMPO 26015G25KT
  • 241330Z AUTO 25012KT 9999 OVC029 20/14 Q1016 TEMPO 26015G25KT
  • 241300Z AUTO 25012KT 9999 BKN024 OVC033 20/14 Q1016 TEMPO 26015G25KT
  • 241230Z AUTO 25013KT 9999 BKN022 BKN027 OVC034 20/14 Q1016 TEMPO 26015G25KT
  • 241200Z AUTO 25017KT 9999 OVC022 19/13 Q1017 TEMPO 26015G25KT

TAF TAF LFQQ
Valid from the 23 at 18:00 until the 25 at 00:00 UTC


231700Z 2318/2424 25012KT 9999 BKN030
TEMPO 2318/2320 25015G25KT
TEMPO 2400/2404 BKN012
TEMPO 2415/2420 25015G25KT
ATIS : +33 3 20 16 19 54
No reported NOTAMs for that airfield.



MET'MAP, your aeronautical weather chart ! - Copyright ORBIFLY December 2007 - Disclaimer

ORBIFLY MET'MAP TEAM :

Programming & Development : Alexandra Zaïnal
Concept & Development : Baudouin d'Aumeries
Co-Development & Prog : Marc-Olivier Méhu
Technical & hardware support : Manuel Goepfert

Contact : metmap@orbifly.com




SOURCES & CREDITS :

   NOAA